sensor_id;sensor_type;location;lat;lon;timestamp;P1;durP1;ratioP1;P2;durP2;ratioP2
70414;SDS011;57837;52.064;113.478;2022-08-19T00:00:33;6.73;;;1.80;;
70414;SDS011;57837;52.064;113.478;2022-08-19T00:03:38;1.80;;;1.00;;
70414;SDS011;57837;52.064;113.478;2022-08-19T00:06:42;4.25;;;1.10;;
70414;SDS011;57837;52.064;113.478;2022-08-19T00:09:46;4.97;;;1.10;;
70414;SDS011;57837;52.064;113.478;2022-08-19T00:12:50;2.97;;;1.10;;
70414;SDS011;57837;52.064;113.478;2022-08-19T00:15:55;9.15;;;1.20;;
70414;SDS011;57837;52.064;113.478;2022-08-19T00:19:07;4.77;;;1.20;;
70414;SDS011;57837;52.064;113.478;2022-08-19T00:22:11;4.60;;;1.00;;
70414;SDS011;57837;52.064;113.478;2022-08-19T00:25:14;4.38;;;1.10;;
70414;SDS011;57837;52.064;113.478;2022-08-19T00:28:19;2.55;;;1.13;;
70414;SDS011;57837;52.064;113.478;2022-08-19T00:31:23;2.97;;;0.90;;
70414;SDS011;57837;52.064;113.478;2022-08-19T00:34:27;2.93;;;0.70;;
70414;SDS011;57837;52.064;113.478;2022-08-19T00:37:31;1.50;;;0.70;;
70414;SDS011;57837;52.064;113.478;2022-08-19T00:40:35;3.83;;;0.70;;
70414;SDS011;57837;52.064;113.478;2022-08-19T00:43:39;3.63;;;1.02;;
70414;SDS011;57837;52.064;113.478;2022-08-19T00:46:43;21.05;;;1.52;;
70414;SDS011;57837;52.064;113.478;2022-08-19T00:49:58;49.77;;;2.60;;
70414;SDS011;57837;52.064;113.478;2022-08-19T00:53:03;3.85;;;0.88;;
70414;SDS011;57837;52.064;113.478;2022-08-19T00:56:06;2.83;;;1.10;;
70414;SDS011;57837;52.064;113.478;2022-08-19T00:59:12;2.95;;;0.98;;
70414;SDS011;57837;52.064;113.478;2022-08-19T01:02:36;2.55;;;0.80;;
70414;SDS011;57837;52.064;113.478;2022-08-19T01:05:41;1.33;;;0.50;;
70414;SDS011;57837;52.064;113.478;2022-08-19T01:08:45;2.13;;;0.70;;
70414;SDS011;57837;52.064;113.478;2022-08-19T01:11:50;2.05;;;0.50;;
70414;SDS011;57837;52.064;113.478;2022-08-19T01:14:54;4.40;;;0.60;;
70414;SDS011;57837;52.064;113.478;2022-08-19T01:18:01;8.70;;;0.70;;
70414;SDS011;57837;52.064;113.478;2022-08-19T01:21:12;3.17;;;0.67;;
70414;SDS011;57837;52.064;113.478;2022-08-19T01:24:31;22.55;;;6.95;;
70414;SDS011;57837;52.064;113.478;2022-08-19T01:27:47;3.30;;;0.60;;
70414;SDS011;57837;52.064;113.478;2022-08-19T01:30:54;2.78;;;0.60;;
70414;SDS011;57837;52.064;113.478;2022-08-19T01:33:57;1.67;;;0.60;;
70414;SDS011;57837;52.064;113.478;2022-08-19T01:37:05;4.10;;;0.40;;
70414;SDS011;57837;52.064;113.478;2022-08-19T01:40:14;3.22;;;0.93;;
70414;SDS011;57837;52.064;113.478;2022-08-19T01:43:18;2.03;;;0.40;;
70414;SDS011;57837;52.064;113.478;2022-08-19T01:46:22;1.10;;;0.60;;
70414;SDS011;57837;52.064;113.478;2022-08-19T01:49:25;3.97;;;0.70;;
70414;SDS011;57837;52.064;113.478;2022-08-19T01:52:28;3.63;;;0.97;;
70414;SDS011;57837;52.064;113.478;2022-08-19T01:55:31;3.50;;;0.80;;
70414;SDS011;57837;52.064;113.478;2022-08-19T01:58:38;4.63;;;0.70;;
70414;SDS011;57837;52.064;113.478;2022-08-19T02:01:49;3.30;;;0.60;;
70414;SDS011;57837;52.064;113.478;2022-08-19T02:04:51;2.58;;;0.70;;
70414;SDS011;57837;52.064;113.478;2022-08-19T02:07:55;7.33;;;0.70;;
70414;SDS011;57837;52.064;113.478;2022-08-19T02:10:59;4.07;;;0.70;;
70414;SDS011;57837;52.064;113.478;2022-08-19T02:14:03;5.90;;;0.60;;
70414;SDS011;57837;52.064;113.478;2022-08-19T02:17:08;1.17;;;0.70;;
70414;SDS011;57837;52.064;113.478;2022-08-19T02:20:11;5.55;;;0.70;;
70414;SDS011;57837;52.064;113.478;2022-08-19T02:23:16;4.97;;;1.23;;
70414;SDS011;57837;52.064;113.478;2022-08-19T02:26:19;7.10;;;1.20;;
70414;SDS011;57837;52.064;113.478;2022-08-19T02:29:22;5.38;;;1.60;;
70414;SDS011;57837;52.064;113.478;2022-08-19T02:32:26;14.52;;;0.90;;
70414;SDS011;57837;52.064;113.478;2022-08-19T02:35:29;4.10;;;0.93;;
70414;SDS011;57837;52.064;113.478;2022-08-19T02:38:34;26.77;;;1.77;;
70414;SDS011;57837;52.064;113.478;2022-08-19T02:41:37;3.60;;;0.60;;
70414;SDS011;57837;52.064;113.478;2022-08-19T02:44:40;8.15;;;1.17;;
70414;SDS011;57837;52.064;113.478;2022-08-19T02:47:44;2.88;;;0.93;;
70414;SDS011;57837;52.064;113.478;2022-08-19T02:50:49;3.92;;;1.38;;
70414;SDS011;57837;52.064;113.478;2022-08-19T02:54:04;13.83;;;2.23;;
70414;SDS011;57837;52.064;113.478;2022-08-19T02:57:08;5.22;;;1.20;;
70414;SDS011;57837;52.064;113.478;2022-08-19T03:00:12;5.72;;;0.70;;
70414;SDS011;57837;52.064;113.478;2022-08-19T03:03:16;2.10;;;0.80;;
70414;SDS011;57837;52.064;113.478;2022-08-19T03:06:21;5.38;;;0.90;;
70414;SDS011;57837;52.064;113.478;2022-08-19T03:09:26;23.53;;;1.30;;
70414;SDS011;57837;52.064;113.478;2022-08-19T03:12:30;4.32;;;0.50;;
70414;SDS011;57837;52.064;113.478;2022-08-19T03:15:34;16.58;;;0.80;;
70414;SDS011;57837;52.064;113.478;2022-08-19T03:18:38;4.75;;;0.60;;
70414;SDS011;57837;52.064;113.478;2022-08-19T03:21:42;9.02;;;0.60;;
70414;SDS011;57837;52.064;113.478;2022-08-19T03:24:47;9.83;;;0.93;;
70414;SDS011;57837;52.064;113.478;2022-08-19T03:27:51;5.90;;;0.50;;
70414;SDS011;57837;52.064;113.478;2022-08-19T03:30:58;11.93;;;0.77;;
70414;SDS011;57837;52.064;113.478;2022-08-19T03:34:04;5.63;;;0.70;;
70414;SDS011;57837;52.064;113.478;2022-08-19T03:37:10;5.03;;;1.00;;
70414;SDS011;57837;52.064;113.478;2022-08-19T03:40:17;5.33;;;1.03;;
70414;SDS011;57837;52.064;113.478;2022-08-19T03:43:22;19.73;;;1.23;;
70414;SDS011;57837;52.064;113.478;2022-08-19T03:46:26;10.63;;;1.10;;
70414;SDS011;57837;52.064;113.478;2022-08-19T03:49:32;8.00;;;0.70;;
70414;SDS011;57837;52.064;113.478;2022-08-19T03:52:38;2.22;;;0.75;;
70414;SDS011;57837;52.064;113.478;2022-08-19T03:55:51;8.10;;;1.63;;
70414;SDS011;57837;52.064;113.478;2022-08-19T03:58:56;5.70;;;0.70;;
70414;SDS011;57837;52.064;113.478;2022-08-19T04:02:06;15.98;;;0.90;;
70414;SDS011;57837;52.064;113.478;2022-08-19T04:05:12;5.18;;;0.90;;
70414;SDS011;57837;52.064;113.478;2022-08-19T04:08:16;6.38;;;0.52;;
70414;SDS011;57837;52.064;113.478;2022-08-19T04:11:23;9.87;;;1.07;;
70414;SDS011;57837;52.064;113.478;2022-08-19T04:14:45;32.30;;;1.90;;
70414;SDS011;57837;52.064;113.478;2022-08-19T04:17:49;5.80;;;0.70;;
70414;SDS011;57837;52.064;113.478;2022-08-19T04:20:52;3.60;;;0.50;;
70414;SDS011;57837;52.064;113.478;2022-08-19T04:23:56;6.28;;;1.15;;
70414;SDS011;57837;52.064;113.478;2022-08-19T04:27:00;3.90;;;0.80;;
70414;SDS011;57837;52.064;113.478;2022-08-19T04:30:05;5.13;;;0.70;;
70414;SDS011;57837;52.064;113.478;2022-08-19T04:33:09;3.05;;;0.60;;
70414;SDS011;57837;52.064;113.478;2022-08-19T04:36:17;2.83;;;0.50;;
70414;SDS011;57837;52.064;113.478;2022-08-19T04:39:25;2.13;;;0.50;;
70414;SDS011;57837;52.064;113.478;2022-08-19T04:42:51;2.40;;;0.90;;
70414;SDS011;57837;52.064;113.478;2022-08-19T04:45:57;3.95;;;0.90;;
70414;SDS011;57837;52.064;113.478;2022-08-19T04:49:03;6.53;;;0.90;;
70414;SDS011;57837;52.064;113.478;2022-08-19T04:52:14;5.47;;;0.57;;
70414;SDS011;57837;52.064;113.478;2022-08-19T04:55:18;3.45;;;0.80;;
70414;SDS011;57837;52.064;113.478;2022-08-19T04:58:21;4.33;;;0.70;;
70414;SDS011;57837;52.064;113.478;2022-08-19T05:01:27;6.63;;;1.10;;
70414;SDS011;57837;52.064;113.478;2022-08-19T05:04:32;5.22;;;0.70;;
70414;SDS011;57837;52.064;113.478;2022-08-19T05:07:35;6.95;;;0.90;;
70414;SDS011;57837;52.064;113.478;2022-08-19T05:10:39;2.08;;;1.08;;
70414;SDS011;57837;52.064;113.478;2022-08-19T05:13:43;2.00;;;0.90;;
70414;SDS011;57837;52.064;113.478;2022-08-19T05:16:47;1.88;;;1.00;;
70414;SDS011;57837;52.064;113.478;2022-08-19T05:19:50;5.30;;;1.73;;
70414;SDS011;57837;52.064;113.478;2022-08-19T05:23:12;5.28;;;1.33;;
70414;SDS011;57837;52.064;113.478;2022-08-19T05:26:24;3.58;;;1.63;;
70414;SDS011;57837;52.064;113.478;2022-08-19T05:29:29;15.00;;;1.03;;
70414;SDS011;57837;52.064;113.478;2022-08-19T05:32:38;8.68;;;1.00;;
70414;SDS011;57837;52.064;113.478;2022-08-19T05:35:42;7.85;;;2.60;;
70414;SDS011;57837;52.064;113.478;2022-08-19T13:36:26;3.58;;;1.52;;
70414;SDS011;57837;52.064;113.478;2022-08-19T13:39:31;9.95;;;1.95;;
70414;SDS011;57837;52.064;113.478;2022-08-19T13:42:35;5.30;;;1.58;;
70414;SDS011;57837;52.064;113.478;2022-08-19T13:45:40;4.68;;;1.45;;
70414;SDS011;57837;52.064;113.478;2022-08-19T13:48:43;4.63;;;1.60;;
70414;SDS011;57837;52.064;113.478;2022-08-19T13:51:47;3.10;;;1.60;;
70414;SDS011;57837;52.064;113.478;2022-08-19T13:54:50;4.85;;;1.40;;
70414;SDS011;57837;52.064;113.478;2022-08-19T13:57:54;5.15;;;1.60;;
70414;SDS011;57837;52.064;113.478;2022-08-19T14:01:00;2.90;;;1.50;;
70414;SDS011;57837;52.064;113.478;2022-08-19T14:04:04;2.53;;;1.30;;
70414;SDS011;57837;52.064;113.478;2022-08-19T14:07:08;5.00;;;1.17;;
70414;SDS011;57837;52.064;113.478;2022-08-19T14:10:13;1.75;;;1.10;;
70414;SDS011;57837;52.064;113.478;2022-08-19T14:13:19;2.22;;;1.08;;
70414;SDS011;57837;52.064;113.478;2022-08-19T14:16:24;2.05;;;1.23;;
70414;SDS011;57837;52.064;113.478;2022-08-19T14:19:29;2.10;;;1.10;;
70414;SDS011;57837;52.064;113.478;2022-08-19T14:22:34;2.72;;;1.20;;
70414;SDS011;57837;52.064;113.478;2022-08-19T14:25:39;3.33;;;1.15;;
70414;SDS011;57837;52.064;113.478;2022-08-19T14:28:43;2.83;;;1.20;;
70414;SDS011;57837;52.064;113.478;2022-08-19T14:31:47;2.42;;;1.33;;
70414;SDS011;57837;52.064;113.478;2022-08-19T14:34:52;3.03;;;1.03;;
70414;SDS011;57837;52.064;113.478;2022-08-19T14:37:57;2.00;;;1.23;;
70414;SDS011;57837;52.064;113.478;2022-08-19T14:41:17;6.35;;;1.10;;
70414;SDS011;57837;52.064;113.478;2022-08-19T14:44:24;6.10;;;2.00;;
70414;SDS011;57837;52.064;113.478;2022-08-19T14:47:28;6.43;;;2.90;;
70414;SDS011;57837;52.064;113.478;2022-08-19T14:50:34;8.03;;;2.97;;
70414;SDS011;57837;52.064;113.478;2022-08-19T14:53:39;5.57;;;2.55;;
70414;SDS011;57837;52.064;113.478;2022-08-19T14:56:44;2.55;;;1.45;;
70414;SDS011;57837;52.064;113.478;2022-08-19T14:59:48;12.57;;;4.60;;
70414;SDS011;57837;52.064;113.478;2022-08-19T15:02:52;10.77;;;4.35;;
70414;SDS011;57837;52.064;113.478;2022-08-19T15:05:57;12.73;;;5.17;;
70414;SDS011;57837;52.064;113.478;2022-08-19T15:19:12;6.22;;;2.00;;
70414;SDS011;57837;52.064;113.478;2022-08-19T15:22:15;12.20;;;3.00;;
70414;SDS011;57837;52.064;113.478;2022-08-19T15:25:19;8.40;;;3.40;;
70414;SDS011;57837;52.064;113.478;2022-08-19T15:28:24;8.93;;;3.40;;
70414;SDS011;57837;52.064;113.478;2022-08-19T15:31:28;5.05;;;2.70;;
70414;SDS011;57837;52.064;113.478;2022-08-19T15:34:38;4.28;;;2.70;;
70414;SDS011;57837;52.064;113.478;2022-08-19T15:37:41;4.75;;;1.92;;
70414;SDS011;57837;52.064;113.478;2022-08-19T15:40:45;6.00;;;2.33;;
70414;SDS011;57837;52.064;113.478;2022-08-19T15:43:51;12.73;;;2.80;;
70414;SDS011;57837;52.064;113.478;2022-08-19T15:46:55;4.82;;;2.03;;
70414;SDS011;57837;52.064;113.478;2022-08-19T15:49:59;3.42;;;1.80;;
70414;SDS011;57837;52.064;113.478;2022-08-19T15:53:04;3.13;;;1.92;;
70414;SDS011;57837;52.064;113.478;2022-08-19T15:56:10;3.00;;;1.70;;
70414;SDS011;57837;52.064;113.478;2022-08-19T15:59:13;5.47;;;1.60;;
70414;SDS011;57837;52.064;113.478;2022-08-19T16:02:41;4.38;;;1.60;;
70414;SDS011;57837;52.064;113.478;2022-08-19T16:06:02;2.25;;;1.50;;
70414;SDS011;57837;52.064;113.478;2022-08-19T16:09:25;2.88;;;1.48;;
70414;SDS011;57837;52.064;113.478;2022-08-19T16:12:31;2.60;;;1.50;;
70414;SDS011;57837;52.064;113.478;2022-08-19T16:15:33;2.67;;;1.40;;
70414;SDS011;57837;52.064;113.478;2022-08-19T16:18:37;5.25;;;2.33;;
70414;SDS011;57837;52.064;113.478;2022-08-19T16:21:41;4.53;;;2.00;;
70414;SDS011;57837;52.064;113.478;2022-08-19T16:24:47;6.65;;;1.92;;
70414;SDS011;57837;52.064;113.478;2022-08-19T16:27:50;4.37;;;1.30;;
70414;SDS011;57837;52.064;113.478;2022-08-19T16:31:10;2.40;;;1.50;;
70414;SDS011;57837;52.064;113.478;2022-08-19T16:34:14;5.30;;;1.80;;
70414;SDS011;57837;52.064;113.478;2022-08-19T16:37:18;2.97;;;1.48;;
70414;SDS011;57837;52.064;113.478;2022-08-19T16:40:22;3.58;;;1.52;;
70414;SDS011;57837;52.064;113.478;2022-08-19T16:43:27;2.93;;;2.33;;
70414;SDS011;57837;52.064;113.478;2022-08-19T16:46:32;3.07;;;1.33;;
70414;SDS011;57837;52.064;113.478;2022-08-19T16:49:36;2.25;;;1.30;;
70414;SDS011;57837;52.064;113.478;2022-08-19T16:52:55;2.20;;;1.30;;
70414;SDS011;57837;52.064;113.478;2022-08-19T16:55:59;6.45;;;1.15;;
70414;SDS011;57837;52.064;113.478;2022-08-19T16:59:03;3.17;;;1.10;;
70414;SDS011;57837;52.064;113.478;2022-08-19T17:02:08;2.40;;;1.37;;
70414;SDS011;57837;52.064;113.478;2022-08-19T17:05:12;1.75;;;1.17;;
70414;SDS011;57837;52.064;113.478;2022-08-19T17:08:18;3.38;;;1.48;;
70414;SDS011;57837;52.064;113.478;2022-08-19T17:11:28;3.95;;;1.75;;
70414;SDS011;57837;52.064;113.478;2022-08-19T17:14:34;3.00;;;1.50;;
70414;SDS011;57837;52.064;113.478;2022-08-19T17:17:37;2.30;;;1.20;;
70414;SDS011;57837;52.064;113.478;2022-08-19T17:20:41;3.65;;;1.60;;
70414;SDS011;57837;52.064;113.478;2022-08-19T17:23:45;1.80;;;1.27;;
70414;SDS011;57837;52.064;113.478;2022-08-19T17:26:49;4.13;;;1.63;;
70414;SDS011;57837;52.064;113.478;2022-08-19T17:29:52;3.00;;;1.57;;
70414;SDS011;57837;52.064;113.478;2022-08-19T17:32:57;5.30;;;1.70;;
70414;SDS011;57837;52.064;113.478;2022-08-19T17:36:01;4.03;;;1.80;;
70414;SDS011;57837;52.064;113.478;2022-08-19T17:39:06;6.93;;;1.92;;
70414;SDS011;57837;52.064;113.478;2022-08-19T17:42:09;9.00;;;2.10;;
70414;SDS011;57837;52.064;113.478;2022-08-19T17:45:14;5.57;;;1.60;;
70414;SDS011;57837;52.064;113.478;2022-08-19T17:48:16;6.77;;;2.37;;
70414;SDS011;57837;52.064;113.478;2022-08-19T17:54:25;4.35;;;1.60;;
70414;SDS011;57837;52.064;113.478;2022-08-19T17:57:35;1.98;;;1.33;;
70414;SDS011;57837;52.064;113.478;2022-08-19T18:00:44;7.57;;;1.47;;
70414;SDS011;57837;52.064;113.478;2022-08-19T18:03:55;4.17;;;1.87;;
70414;SDS011;57837;52.064;113.478;2022-08-19T18:07:00;7.03;;;1.75;;
70414;SDS011;57837;52.064;113.478;2022-08-19T18:10:08;3.15;;;1.60;;
70414;SDS011;57837;52.064;113.478;2022-08-19T18:13:12;3.47;;;1.17;;
70414;SDS011;57837;52.064;113.478;2022-08-19T18:16:19;3.03;;;1.70;;
70414;SDS011;57837;52.064;113.478;2022-08-19T18:19:24;5.10;;;1.80;;
70414;SDS011;57837;52.064;113.478;2022-08-19T18:22:44;3.90;;;1.52;;
70414;SDS011;57837;52.064;113.478;2022-08-19T18:25:49;2.13;;;1.20;;
70414;SDS011;57837;52.064;113.478;2022-08-19T18:28:54;4.07;;;1.50;;
70414;SDS011;57837;52.064;113.478;2022-08-19T18:31:58;2.30;;;1.47;;
70414;SDS011;57837;52.064;113.478;2022-08-19T18:35:03;3.67;;;2.10;;
70414;SDS011;57837;52.064;113.478;2022-08-19T18:38:16;3.63;;;1.55;;
70414;SDS011;57837;52.064;113.478;2022-08-19T18:41:40;3.17;;;1.65;;
70414;SDS011;57837;52.064;113.478;2022-08-19T18:45:03;4.38;;;1.55;;
70414;SDS011;57837;52.064;113.478;2022-08-19T18:48:26;5.83;;;1.93;;
70414;SDS011;57837;52.064;113.478;2022-08-19T18:51:48;2.73;;;1.73;;
70414;SDS011;57837;52.064;113.478;2022-08-19T18:54:52;3.65;;;1.42;;
70414;SDS011;57837;52.064;113.478;2022-08-19T18:57:55;4.63;;;1.75;;
70414;SDS011;57837;52.064;113.478;2022-08-19T19:04:29;4.10;;;1.70;;
70414;SDS011;57837;52.064;113.478;2022-08-19T19:07:39;2.67;;;1.43;;
70414;SDS011;57837;52.064;113.478;2022-08-19T19:10:42;3.70;;;1.70;;
70414;SDS011;57837;52.064;113.478;2022-08-19T19:13:47;10.82;;;4.03;;
70414;SDS011;57837;52.064;113.478;2022-08-19T19:16:51;9.10;;;4.25;;
70414;SDS011;57837;52.064;113.478;2022-08-19T19:19:55;6.60;;;2.27;;
70414;SDS011;57837;52.064;113.478;2022-08-19T19:22:58;2.53;;;1.43;;
70414;SDS011;57837;52.064;113.478;2022-08-19T19:26:03;3.67;;;1.88;;
70414;SDS011;57837;52.064;113.478;2022-08-19T19:29:06;3.53;;;1.77;;
70414;SDS011;57837;52.064;113.478;2022-08-19T19:32:15;4.50;;;1.45;;
70414;SDS011;57837;52.064;113.478;2022-08-19T19:35:20;3.33;;;1.73;;
70414;SDS011;57837;52.064;113.478;2022-08-19T19:38:24;3.47;;;1.50;;
70414;SDS011;57837;52.064;113.478;2022-08-19T19:41:27;4.10;;;1.80;;
70414;SDS011;57837;52.064;113.478;2022-08-19T19:44:32;6.35;;;1.55;;
70414;SDS011;57837;52.064;113.478;2022-08-19T19:47:35;2.60;;;1.55;;
70414;SDS011;57837;52.064;113.478;2022-08-19T19:50:38;3.33;;;1.60;;
70414;SDS011;57837;52.064;113.478;2022-08-19T19:53:41;3.20;;;1.50;;
70414;SDS011;57837;52.064;113.478;2022-08-19T19:56:45;2.92;;;1.38;;
70414;SDS011;57837;52.064;113.478;2022-08-19T19:59:52;3.67;;;1.50;;
70414;SDS011;57837;52.064;113.478;2022-08-19T20:02:56;3.63;;;1.73;;
70414;SDS011;57837;52.064;113.478;2022-08-19T20:05:59;2.97;;;1.70;;
70414;SDS011;57837;52.064;113.478;2022-08-19T20:09:03;2.70;;;1.30;;
70414;SDS011;57837;52.064;113.478;2022-08-19T20:12:09;2.72;;;1.33;;
70414;SDS011;57837;52.064;113.478;2022-08-19T20:15:12;3.30;;;1.67;;
70414;SDS011;57837;52.064;113.478;2022-08-19T20:18:16;5.38;;;1.88;;
70414;SDS011;57837;52.064;113.478;2022-08-19T20:21:20;3.50;;;1.53;;
70414;SDS011;57837;52.064;113.478;2022-08-19T20:24:27;3.83;;;1.60;;
70414;SDS011;57837;52.064;113.478;2022-08-19T20:27:34;4.05;;;2.13;;
70414;SDS011;57837;52.064;113.478;2022-08-19T20:30:41;3.13;;;1.65;;
70414;SDS011;57837;52.064;113.478;2022-08-19T20:33:49;3.60;;;1.58;;
70414;SDS011;57837;52.064;113.478;2022-08-19T20:36:53;5.57;;;2.00;;
70414;SDS011;57837;52.064;113.478;2022-08-19T20:39:56;4.03;;;1.90;;
70414;SDS011;57837;52.064;113.478;2022-08-19T20:43:00;3.88;;;1.60;;
70414;SDS011;57837;52.064;113.478;2022-08-19T20:46:04;7.65;;;1.55;;
70414;SDS011;57837;52.064;113.478;2022-08-19T20:49:07;7.57;;;1.70;;
70414;SDS011;57837;52.064;113.478;2022-08-19T20:52:11;3.80;;;1.70;;
70414;SDS011;57837;52.064;113.478;2022-08-19T20:55:16;3.60;;;1.70;;
70414;SDS011;57837;52.064;113.478;2022-08-19T20:58:21;7.88;;;1.55;;
70414;SDS011;57837;52.064;113.478;2022-08-19T21:01:27;6.07;;;2.45;;
70414;SDS011;57837;52.064;113.478;2022-08-19T21:04:30;53.50;;;17.02;;
70414;SDS011;57837;52.064;113.478;2022-08-19T21:07:35;69.83;;;20.97;;
70414;SDS011;57837;52.064;113.478;2022-08-19T21:10:40;55.37;;;18.50;;
70414;SDS011;57837;52.064;113.478;2022-08-19T21:13:44;53.45;;;18.08;;
70414;SDS011;57837;52.064;113.478;2022-08-19T21:16:48;15.38;;;6.07;;
70414;SDS011;57837;52.064;113.478;2022-08-19T21:19:52;9.05;;;3.58;;
70414;SDS011;57837;52.064;113.478;2022-08-19T21:22:56;10.67;;;3.60;;
70414;SDS011;57837;52.064;113.478;2022-08-19T21:26:00;11.23;;;3.47;;
70414;SDS011;57837;52.064;113.478;2022-08-19T21:29:04;8.35;;;3.47;;
70414;SDS011;57837;52.064;113.478;2022-08-19T21:32:08;6.50;;;2.90;;
70414;SDS011;57837;52.064;113.478;2022-08-19T21:35:15;9.10;;;3.20;;
70414;SDS011;57837;52.064;113.478;2022-08-19T21:38:20;7.73;;;2.70;;
70414;SDS011;57837;52.064;113.478;2022-08-19T21:41:24;4.17;;;2.37;;
70414;SDS011;57837;52.064;113.478;2022-08-19T21:44:28;5.97;;;2.85;;
70414;SDS011;57837;52.064;113.478;2022-08-19T21:47:31;11.18;;;3.05;;
70414;SDS011;57837;52.064;113.478;2022-08-19T21:50:35;5.35;;;2.75;;
70414;SDS011;57837;52.064;113.478;2022-08-19T21:53:39;6.10;;;2.20;;
70414;SDS011;57837;52.064;113.478;2022-08-19T21:56:44;3.73;;;2.20;;
70414;SDS011;57837;52.064;113.478;2022-08-19T21:59:48;4.25;;;2.25;;
70414;SDS011;57837;52.064;113.478;2022-08-19T22:02:52;3.20;;;2.20;;
70414;SDS011;57837;52.064;113.478;2022-08-19T22:05:55;5.93;;;2.30;;
70414;SDS011;57837;52.064;113.478;2022-08-19T22:09:00;5.63;;;2.40;;
70414;SDS011;57837;52.064;113.478;2022-08-19T22:12:06;4.60;;;2.27;;
70414;SDS011;57837;52.064;113.478;2022-08-19T22:15:12;5.25;;;2.20;;
70414;SDS011;57837;52.064;113.478;2022-08-19T22:18:19;15.15;;;2.47;;
70414;SDS011;57837;52.064;113.478;2022-08-19T22:21:23;15.02;;;2.47;;
70414;SDS011;57837;52.064;113.478;2022-08-19T22:24:42;7.37;;;2.10;;
70414;SDS011;57837;52.064;113.478;2022-08-19T22:27:45;5.07;;;2.00;;
70414;SDS011;57837;52.064;113.478;2022-08-19T22:30:48;5.28;;;2.03;;
70414;SDS011;57837;52.064;113.478;2022-08-19T22:33:52;6.82;;;1.80;;
70414;SDS011;57837;52.064;113.478;2022-08-19T22:36:56;6.28;;;1.70;;
70414;SDS011;57837;52.064;113.478;2022-08-19T22:39:59;6.40;;;1.60;;
70414;SDS011;57837;52.064;113.478;2022-08-19T22:43:11;4.53;;;2.50;;
70414;SDS011;57837;52.064;113.478;2022-08-19T22:46:17;5.13;;;2.08;;
70414;SDS011;57837;52.064;113.478;2022-08-19T22:49:20;3.20;;;1.95;;
70414;SDS011;57837;52.064;113.478;2022-08-19T22:52:23;2.85;;;1.75;;
70414;SDS011;57837;52.064;113.478;2022-08-19T22:55:28;7.57;;;1.77;;
70414;SDS011;57837;52.064;113.478;2022-08-19T22:58:32;2.77;;;1.70;;
70414;SDS011;57837;52.064;113.478;2022-08-19T23:01:41;6.43;;;1.80;;
70414;SDS011;57837;52.064;113.478;2022-08-19T23:04:45;4.13;;;2.08;;
70414;SDS011;57837;52.064;113.478;2022-08-19T23:07:49;4.10;;;1.98;;
70414;SDS011;57837;52.064;113.478;2022-08-19T23:10:53;3.37;;;2.20;;
70414;SDS011;57837;52.064;113.478;2022-08-19T23:13:58;3.93;;;1.83;;
70414;SDS011;57837;52.064;113.478;2022-08-19T23:17:03;2.63;;;1.70;;
70414;SDS011;57837;52.064;113.478;2022-08-19T23:20:08;5.47;;;2.30;;
70414;SDS011;57837;52.064;113.478;2022-08-19T23:23:14;2.83;;;2.05;;
